createdAt,value
2019-04-26T06:16:12.271Z,31.85
2019-04-26T06:17:10.332Z,31.73
2019-04-26T06:18:26.914Z,31.59
2019-04-26T06:19:29.247Z,31.45
2019-04-26T06:20:39.552Z,31.25
2019-04-26T06:21:33.505Z,31.28
2019-04-26T06:22:27.620Z,31.05
2019-04-26T06:23:15.316Z,30.70
2019-04-26T06:24:20.159Z,30.85
2019-04-26T06:25:14.410Z,31.13
2019-04-26T06:26:35.510Z,31.13
2019-04-26T06:27:56.887Z,31.06
2019-04-26T06:28:56.352Z,30.87
2019-04-26T06:29:38.698Z,30.69
2019-04-26T06:30:29.250Z,30.72
2019-04-26T06:31:13.280Z,30.72
2019-04-26T06:32:18.922Z,30.67
2019-04-26T06:33:28.269Z,30.52
2019-04-26T06:34:17.971Z,30.23
2019-04-26T06:35:11.952Z,30.10
2019-04-26T06:35:48.991Z,29.93
2019-04-26T06:36:28.590Z,29.98
2019-04-26T06:37:17.754Z,30.08
2019-04-26T06:38:28.880Z,29.73
2019-04-26T06:39:33.875Z,29.76
2019-04-26T06:40:24.260Z,29.59
2019-04-26T06:42:00.800Z,29.46
2019-04-26T06:43:02.654Z,29.52
2019-04-26T06:43:46.386Z,29.65
2019-04-26T06:44:31.277Z,29.63
2019-04-26T06:45:35.532Z,29.55
2019-04-26T13:20:11.021Z,31.30
2019-04-26T13:20:47.660Z,31.22
2019-04-26T13:21:33.083Z,30.98
2019-04-26T13:22:12.549Z,30.98
2019-04-26T13:22:50.263Z,30.82
2019-04-26T13:23:30.046Z,30.70
2019-04-26T13:24:06.133Z,30.65
2019-04-26T13:24:43.270Z,30.52
2019-04-26T13:25:26.449Z,30.32
2019-04-26T13:25:59.561Z,30.29
2019-04-26T13:26:38.435Z,30.21
2019-04-26T13:27:14.066Z,30.16
2019-04-26T13:27:53.925Z,30.08
2019-04-26T13:28:30.668Z,30.03
2019-04-26T13:29:07.728Z,29.93
2019-04-26T13:29:44.387Z,29.80
2019-04-26T13:30:32.419Z,29.69
2019-04-26T13:31:02.064Z,29.73
2019-04-26T13:31:38.315Z,29.66
2019-04-26T13:32:27.483Z,29.57
2019-04-26T13:33:14.535Z,29.37
2019-04-26T13:33:58.324Z,29.37
2019-04-26T13:34:44.298Z,29.33
2019-04-26T13:35:35.931Z,29.06
2019-04-26T13:36:15.959Z,29.10
2019-04-26T13:36:52.957Z,29.10
2019-04-26T13:37:32.218Z,29.06
2019-04-26T13:38:10.063Z,29.02
2019-04-26T13:38:47.283Z,29.03
2019-04-26T13:39:24.252Z,28.98
2019-04-26T13:40:00.898Z,28.96
2019-04-26T13:40:41.913Z,28.84
2019-04-26T13:41:19.962Z,28.75
2019-04-26T13:42:04.361Z,28.75
2019-04-26T13:42:39.000Z,28.61
2019-04-26T13:43:16.338Z,28.57
2019-04-26T13:43:52.985Z,28.04
2019-04-26T13:44:46.609Z,28.38
2019-04-26T13:45:40.931Z,28.42
2019-04-26T13:46:35.290Z,28.42
2019-04-26T13:47:23.287Z,28.43
2019-04-26T13:48:19.260Z,28.36
2019-04-26T13:49:00.232Z,28.31
2019-04-26T13:49:38.551Z,28.24
2019-04-26T13:50:29.327Z,28.10
2019-04-26T13:51:10.306Z,28.10
